sensor_id;sensor_type;location;lat;lon;timestamp;pressure;altitude;pressure_sealevel;temperature;humidity
70589;BME280;58152;49.202;18.744;2022-07-24T00:00:39;97516.28;;;23.99;58.15
70589;BME280;58152;49.202;18.744;2022-07-24T00:03:05;97520.81;;;23.98;58.18
70589;BME280;58152;49.202;18.744;2022-07-24T00:05:30;97520.97;;;23.97;58.08
70589;BME280;58152;49.202;18.744;2022-07-24T00:07:56;97523.94;;;23.94;58.46
70589;BME280;58152;49.202;18.744;2022-07-24T00:10:21;97515.50;;;23.89;58.33
70589;BME280;58152;49.202;18.744;2022-07-24T00:12:47;97512.97;;;23.87;58.31
70589;BME280;58152;49.202;18.744;2022-07-24T00:15:12;97520.47;;;23.83;58.52
70589;BME280;58152;49.202;18.744;2022-07-24T00:17:38;97530.47;;;23.81;58.59
70589;BME280;58152;49.202;18.744;2022-07-24T00:20:05;97531.63;;;23.79;58.53
70589;BME280;58152;49.202;18.744;2022-07-24T00:22:31;97523.72;;;23.77;58.59
70589;BME280;58152;49.202;18.744;2022-07-24T00:24:56;97528.22;;;23.77;58.67
70589;BME280;58152;49.202;18.744;2022-07-24T00:27:22;97530.06;;;23.76;59.00
70589;BME280;58152;49.202;18.744;2022-07-24T00:29:47;97530.22;;;23.75;59.04
70589;BME280;58152;49.202;18.744;2022-07-24T00:32:13;97522.34;;;23.73;58.96
70589;BME280;58152;49.202;18.744;2022-07-24T00:34:39;97520.09;;;23.69;58.91
70589;BME280;58152;49.202;18.744;2022-07-24T00:37:04;97527.00;;;23.71;58.83
70589;BME280;58152;49.202;18.744;2022-07-24T00:39:30;97522.31;;;23.64;59.07
70589;BME280;58152;49.202;18.744;2022-07-24T00:41:55;97513.88;;;23.58;58.99
70589;BME280;58152;49.202;18.744;2022-07-24T00:44:21;97504.03;;;23.59;59.21
70589;BME280;58152;49.202;18.744;2022-07-24T00:46:47;97511.94;;;23.61;59.32
70589;BME280;58152;49.202;18.744;2022-07-24T00:49:16;97527.44;;;23.57;59.37
70589;BME280;58152;49.202;18.744;2022-07-24T00:51:43;97520.28;;;23.48;59.16
70589;BME280;58152;49.202;18.744;2022-07-24T00:54:11;97521.13;;;23.48;59.64
70589;BME280;58152;49.202;18.744;2022-07-24T00:56:37;97518.72;;;23.45;59.46
70589;BME280;58152;49.202;18.744;2022-07-24T00:59:03;97519.47;;;23.38;59.48
70589;BME280;58152;49.202;18.744;2022-07-24T01:01:30;97520.75;;;23.33;59.62
70589;BME280;58152;49.202;18.744;2022-07-24T01:03:57;97525.94;;;23.35;59.88
70589;BME280;58152;49.202;18.744;2022-07-24T01:06:23;97531.31;;;23.35;60.21
70589;BME280;58152;49.202;18.744;2022-07-24T01:08:49;97521.03;;;23.30;60.02
70589;BME280;58152;49.202;18.744;2022-07-24T01:11:15;97523.44;;;23.33;60.07
70589;BME280;58152;49.202;18.744;2022-07-24T01:13:41;97534.69;;;23.37;60.22
70589;BME280;58152;49.202;18.744;2022-07-24T01:16:09;97522.59;;;23.33;60.27
70589;BME280;58152;49.202;18.744;2022-07-24T01:18:36;97533.97;;;23.35;60.45
70589;BME280;58152;49.202;18.744;2022-07-24T01:21:02;97534.13;;;23.33;60.42
70589;BME280;58152;49.202;18.744;2022-07-24T01:23:28;97536.25;;;23.30;60.48
70589;BME280;58152;49.202;18.744;2022-07-24T01:25:53;97528.81;;;23.24;60.77
70589;BME280;58152;49.202;18.744;2022-07-24T01:28:19;97533.84;;;23.27;60.62
70589;BME280;58152;49.202;18.744;2022-07-24T01:33:20;97536.28;;;23.20;60.77
70589;BME280;58152;49.202;18.744;2022-07-24T01:35:45;97531.19;;;23.17;61.17
70589;BME280;58152;49.202;18.744;2022-07-24T01:38:11;97524.84;;;23.18;60.95
70589;BME280;58152;49.202;18.744;2022-07-24T01:40:38;97526.56;;;23.19;61.10
70589;BME280;58152;49.202;18.744;2022-07-24T01:43:04;97533.88;;;23.17;61.49
70589;BME280;58152;49.202;18.744;2022-07-24T01:45:30;97528.13;;;23.12;61.29
70589;BME280;58152;49.202;18.744;2022-07-24T01:47:56;97533.31;;;23.14;61.41
70589;BME280;58152;49.202;18.744;2022-07-24T01:50:21;97531.78;;;23.11;61.53
70589;BME280;58152;49.202;18.744;2022-07-24T01:52:47;97535.47;;;23.10;61.30
70589;BME280;58152;49.202;18.744;2022-07-24T01:55:12;97524.03;;;23.08;61.62
70589;BME280;58152;49.202;18.744;2022-07-24T01:57:38;97539.09;;;23.09;61.45
70589;BME280;58152;49.202;18.744;2022-07-24T02:00:06;97528.28;;;23.01;61.65
70589;BME280;58152;49.202;18.744;2022-07-24T02:02:37;97528.28;;;23.01;61.64
70589;BME280;58152;49.202;18.744;2022-07-24T02:05:02;97525.31;;;22.94;61.80
70589;BME280;58152;49.202;18.744;2022-07-24T02:07:28;97521.81;;;22.94;61.85
70589;BME280;58152;49.202;18.744;2022-07-24T02:09:54;97533.34;;;22.94;62.00
70589;BME280;58152;49.202;18.744;2022-07-24T02:12:19;97533.91;;;22.88;62.11
70589;BME280;58152;49.202;18.744;2022-07-24T02:14:45;97531.09;;;22.90;62.37
70589;BME280;58152;49.202;18.744;2022-07-24T02:17:10;97531.81;;;22.92;62.29
70589;BME280;58152;49.202;18.744;2022-07-24T02:19:36;97526.97;;;22.86;62.51
70589;BME280;58152;49.202;18.744;2022-07-24T02:22:01;97525.16;;;22.86;62.62
70589;BME280;58152;49.202;18.744;2022-07-24T02:24:27;97533.31;;;22.84;62.70
70589;BME280;58152;49.202;18.744;2022-07-24T02:26:52;97531.50;;;22.85;62.57
70589;BME280;58152;49.202;18.744;2022-07-24T02:29:18;97531.78;;;22.82;62.54
70589;BME280;58152;49.202;18.744;2022-07-24T02:31:43;97531.91;;;22.80;63.02
70589;BME280;58152;49.202;18.744;2022-07-24T02:34:09;97533.59;;;22.81;62.99
70589;BME280;58152;49.202;18.744;2022-07-24T02:36:35;97527.72;;;22.78;62.94
70589;BME280;58152;49.202;18.744;2022-07-24T02:39:01;97540.66;;;22.82;62.69
70589;BME280;58152;49.202;18.744;2022-07-24T02:41:26;97523.22;;;22.78;62.93
70589;BME280;58152;49.202;18.744;2022-07-24T02:43:52;97529.66;;;22.76;62.92
70589;BME280;58152;49.202;18.744;2022-07-24T02:46:17;97534.16;;;22.75;62.82
70589;BME280;58152;49.202;18.744;2022-07-24T02:48:43;97527.41;;;22.71;63.24
70589;BME280;58152;49.202;18.744;2022-07-24T02:51:08;97532.34;;;22.76;63.18
70589;BME280;58152;49.202;18.744;2022-07-24T02:53:35;97537.84;;;22.74;63.35
70589;BME280;58152;49.202;18.744;2022-07-24T02:56:01;97534.59;;;22.71;63.39
70589;BME280;58152;49.202;18.744;2022-07-24T02:58:26;97538.25;;;22.70;63.34
70589;BME280;58152;49.202;18.744;2022-07-24T03:00:51;97530.66;;;22.65;63.54
70589;BME280;58152;49.202;18.744;2022-07-24T03:03:17;97530.50;;;22.67;63.61
70589;BME280;58152;49.202;18.744;2022-07-24T03:05:42;97537.97;;;22.63;63.69
70589;BME280;58152;49.202;18.744;2022-07-24T03:08:08;97541.34;;;22.65;64.22
70589;BME280;58152;49.202;18.744;2022-07-24T03:10:33;97540.22;;;22.68;63.86
70589;BME280;58152;49.202;18.744;2022-07-24T03:12:59;97534.19;;;22.66;63.86
70589;BME280;58152;49.202;18.744;2022-07-24T03:15:24;97545.88;;;22.65;63.74
70589;BME280;58152;49.202;18.744;2022-07-24T03:17:53;97543.19;;;22.65;63.95
70589;BME280;58152;49.202;18.744;2022-07-24T03:20:20;97539.78;;;22.63;63.86
70589;BME280;58152;49.202;18.744;2022-07-24T03:22:46;97556.41;;;22.66;63.84
70589;BME280;58152;49.202;18.744;2022-07-24T03:25:12;97555.72;;;22.64;64.28
70589;BME280;58152;49.202;18.744;2022-07-24T03:27:38;97563.75;;;22.64;63.92
70589;BME280;58152;49.202;18.744;2022-07-24T03:30:04;97565.84;;;22.61;64.28
70589;BME280;58152;49.202;18.744;2022-07-24T03:32:31;97565.28;;;22.57;64.26
70589;BME280;58152;49.202;18.744;2022-07-24T03:34:56;97565.41;;;22.55;64.41
70589;BME280;58152;49.202;18.744;2022-07-24T03:37:22;97560.91;;;22.56;64.49
70589;BME280;58152;49.202;18.744;2022-07-24T03:39:47;97571.59;;;22.56;64.72
70589;BME280;58152;49.202;18.744;2022-07-24T03:42:12;97562.16;;;22.52;64.67
70589;BME280;58152;49.202;18.744;2022-07-24T03:44:38;97569.19;;;22.53;64.52
70589;BME280;58152;49.202;18.744;2022-07-24T03:47:04;97570.19;;;22.52;64.35
70589;BME280;58152;49.202;18.744;2022-07-24T03:49:29;97565.84;;;22.51;64.35
70589;BME280;58152;49.202;18.744;2022-07-24T03:51:55;97559.91;;;22.47;64.34
70589;BME280;58152;49.202;18.744;2022-07-24T03:54:20;97572.19;;;22.50;63.95
70589;BME280;58152;49.202;18.744;2022-07-24T03:56:47;97571.31;;;22.49;63.63
70589;BME280;58152;49.202;18.744;2022-07-24T03:59:12;97572.88;;;22.52;63.36
70589;BME280;58152;49.202;18.744;2022-07-24T04:01:38;97578.78;;;22.55;63.09
70589;BME280;58152;49.202;18.744;2022-07-24T04:04:03;97570.03;;;22.53;63.16
70589;BME280;58152;49.202;18.744;2022-07-24T04:06:32;97575.53;;;22.52;63.00
70589;BME280;58152;49.202;18.744;2022-07-24T04:08:59;97583.56;;;22.52;62.67
70589;BME280;58152;49.202;18.744;2022-07-24T04:11:25;97573.84;;;22.51;62.55
70589;BME280;58152;49.202;18.744;2022-07-24T04:13:51;97577.09;;;22.54;62.39
70589;BME280;58152;49.202;18.744;2022-07-24T04:16:17;97575.38;;;22.53;62.46
70589;BME280;58152;49.202;18.744;2022-07-24T04:18:43;97589.34;;;22.57;62.20
70589;BME280;58152;49.202;18.744;2022-07-24T04:21:08;97591.44;;;22.53;62.04
70589;BME280;58152;49.202;18.744;2022-07-24T04:23:34;97580.88;;;22.52;61.89
70589;BME280;58152;49.202;18.744;2022-07-24T04:25:59;97594.81;;;22.55;61.88
70589;BME280;58152;49.202;18.744;2022-07-24T04:28:25;97590.59;;;22.53;62.13
70589;BME280;58152;49.202;18.744;2022-07-24T04:30:50;97594.94;;;22.54;61.93
70589;BME280;58152;49.202;18.744;2022-07-24T04:33:16;97601.00;;;22.56;61.58
70589;BME280;58152;49.202;18.744;2022-07-24T04:35:41;97599.34;;;22.55;61.21
70589;BME280;58152;49.202;18.744;2022-07-24T04:38:07;97599.19;;;22.56;61.10
70589;BME280;58152;49.202;18.744;2022-07-24T04:40:32;97605.38;;;22.57;60.59
70589;BME280;58152;49.202;18.744;2022-07-24T04:42:58;97607.06;;;22.58;60.73
70589;BME280;58152;49.202;18.744;2022-07-24T04:45:23;97593.25;;;22.53;60.23
70589;BME280;58152;49.202;18.744;2022-07-24T04:47:49;97599.44;;;22.53;59.97
70589;BME280;58152;49.202;18.744;2022-07-24T04:50:14;97604.53;;;22.56;59.74
70589;BME280;58152;49.202;18.744;2022-07-24T04:52:40;97603.97;;;22.53;59.59
70589;BME280;58152;49.202;18.744;2022-07-24T04:55:06;97615.38;;;22.55;59.81
70589;BME280;58152;49.202;18.744;2022-07-24T04:57:32;97620.84;;;22.53;59.43
70589;BME280;58152;49.202;18.744;2022-07-24T04:59:57;97624.50;;;22.52;59.22
70589;BME280;58152;49.202;18.744;2022-07-24T05:02:23;97620.28;;;22.50;58.83
70589;BME280;58152;49.202;18.744;2022-07-24T05:04:48;97623.09;;;22.48;58.98
70589;BME280;58152;49.202;18.744;2022-07-24T05:07:14;97633.66;;;22.50;58.95
70589;BME280;58152;49.202;18.744;2022-07-24T05:09:39;97628.56;;;22.47;58.83
70589;BME280;58152;49.202;18.744;2022-07-24T05:12:05;97626.16;;;22.44;58.88
70589;BME280;58152;49.202;18.744;2022-07-24T05:14:30;97636.75;;;22.45;58.80
70589;BME280;58152;49.202;18.744;2022-07-24T05:16:56;97637.69;;;22.44;58.65
70589;BME280;58152;49.202;18.744;2022-07-24T05:19:21;97638.69;;;22.43;58.76
70589;BME280;58152;49.202;18.744;2022-07-24T05:21:47;97632.66;;;22.41;58.59
70589;BME280;58152;49.202;18.744;2022-07-24T05:24:12;97635.31;;;22.41;58.92
70589;BME280;58152;49.202;18.744;2022-07-24T05:26:38;97639.81;;;22.41;59.06
70589;BME280;58152;49.202;18.744;2022-07-24T05:29:04;97646.13;;;22.40;58.72
70589;BME280;58152;49.202;18.744;2022-07-24T05:31:33;97647.44;;;22.45;58.78
70589;BME280;58152;49.202;18.744;2022-07-24T05:33:59;97644.19;;;22.42;58.66
70589;BME280;58152;49.202;18.744;2022-07-24T05:36:27;97642.09;;;22.45;58.77
70589;BME280;58152;49.202;18.744;2022-07-24T05:38:53;97646.56;;;22.45;58.53
70589;BME280;58152;49.202;18.744;2022-07-24T05:41:18;97640.13;;;22.47;58.58
70589;BME280;58152;49.202;18.744;2022-07-24T05:43:44;97641.53;;;22.51;58.45
70589;BME280;58152;49.202;18.744;2022-07-24T05:46:09;97641.38;;;22.53;58.40
70589;BME280;58152;49.202;18.744;2022-07-24T05:48:35;97649.00;;;22.57;58.14
70589;BME280;58152;49.202;18.744;2022-07-24T05:51:00;97651.25;;;22.62;57.70
70589;BME280;58152;49.202;18.744;2022-07-24T05:53:26;97648.59;;;22.62;57.71
70589;BME280;58152;49.202;18.744;2022-07-24T05:55:52;97651.56;;;22.69;57.59
70589;BME280;58152;49.202;18.744;2022-07-24T05:58:17;97648.75;;;22.70;57.22
70589;BME280;58152;49.202;18.744;2022-07-24T06:00:43;97661.97;;;22.72;57.45
70589;BME280;58152;49.202;18.744;2022-07-24T06:03:09;97660.84;;;22.74;57.11
70589;BME280;58152;49.202;18.744;2022-07-24T06:05:35;97658.75;;;22.78;56.64
70589;BME280;58152;49.202;18.744;2022-07-24T06:08:00;97660.44;;;22.79;56.51
70589;BME280;58152;49.202;18.744;2022-07-24T06:10:26;97664.66;;;22.81;56.59
70589;BME280;58152;49.202;18.744;2022-07-24T06:12:52;97660.88;;;22.84;56.55
70589;BME280;58152;49.202;18.744;2022-07-24T06:22:31;97667.91;;;22.85;55.64
70589;BME280;58152;49.202;18.744;2022-07-24T06:24:57;97678.22;;;22.90;55.32
70589;BME280;58152;49.202;18.744;2022-07-24T06:27:22;97672.03;;;22.89;54.61
70589;BME280;58152;49.202;18.744;2022-07-24T06:29:48;97672.25;;;22.86;53.92
70589;BME280;58152;49.202;18.744;2022-07-24T06:32:14;97668.91;;;22.84;53.72
70589;BME280;58152;49.202;18.744;2022-07-24T06:34:39;97668.75;;;22.86;53.45
70589;BME280;58152;49.202;18.744;2022-07-24T06:37:05;97681.00;;;22.88;53.14
70589;BME280;58152;49.202;18.744;2022-07-24T06:39:30;97666.06;;;22.86;52.43
70589;BME280;58152;49.202;18.744;2022-07-24T06:41:56;97671.31;;;22.87;51.92
70589;BME280;58152;49.202;18.744;2022-07-24T06:44:32;97679.34;;;22.87;51.07
70589;BME280;58152;49.202;18.744;2022-07-24T06:47:20;97669.88;;;22.83;49.89
70589;BME280;58152;49.202;18.744;2022-07-24T06:49:45;97670.00;;;22.81;50.74
70589;BME280;58152;49.202;18.744;2022-07-24T06:52:11;97668.47;;;22.79;50.67
70589;BME280;58152;49.202;18.744;2022-07-24T06:54:36;97669.56;;;22.76;50.38
70589;BME280;58152;49.202;18.744;2022-07-24T06:57:02;97673.81;;;22.79;50.04
70589;BME280;58152;49.202;18.744;2022-07-24T06:59:27;97661.97;;;22.72;49.05
70589;BME280;58152;49.202;18.744;2022-07-24T07:02:29;97682.53;;;22.71;48.15
70589;BME280;58152;49.202;18.744;2022-07-24T07:05:18;97678.16;;;22.70;47.33
70589;BME280;58152;49.202;18.744;2022-07-24T07:14:05;97682.66;;;22.60;49.00
70589;BME280;58152;49.202;18.744;2022-07-24T07:16:31;97677.72;;;22.55;48.61
70589;BME280;58152;49.202;18.744;2022-07-24T07:22:16;97678.69;;;22.54;47.65
70589;BME280;58152;49.202;18.744;2022-07-24T07:26:01;97686.56;;;22.56;47.54
70589;BME280;58152;49.202;18.744;2022-07-24T07:29:10;97692.09;;;22.64;48.14
70589;BME280;58152;49.202;18.744;2022-07-24T07:32:19;97693.91;;;22.64;48.41
70589;BME280;58152;49.202;18.744;2022-07-24T08:10:46;97705.72;;;23.01;47.46
70589;BME280;58152;49.202;18.744;2022-07-24T08:36:50;97709.25;;;23.41;47.35
70589;BME280;58152;49.202;18.744;2022-07-24T08:49:32;97710.38;;;23.38;47.06
70589;BME280;58152;49.202;18.744;2022-07-24T08:52:18;97709.13;;;23.42;46.36
70589;BME280;58152;49.202;18.744;2022-07-24T08:55:10;97698.53;;;23.41;46.38
70589;BME280;58152;49.202;18.744;2022-07-24T08:57:43;97707.56;;;23.40;45.99
70589;BME280;58152;49.202;18.744;2022-07-24T09:00:09;97706.13;;;23.45;46.56
70589;BME280;58152;49.202;18.744;2022-07-24T09:09:36;97695.44;;;23.55;44.64
70589;BME280;58152;49.202;18.744;2022-07-24T09:12:52;97710.78;;;23.63;45.46
70589;BME280;58152;49.202;18.744;2022-07-24T09:26:23;97720.41;;;23.75;45.40
70589;BME280;58152;49.202;18.744;2022-07-24T09:43:40;97711.84;;;24.08;43.90
70589;BME280;58152;49.202;18.744;2022-07-24T09:47:11;97712.41;;;24.12;43.09
70589;BME280;58152;49.202;18.744;2022-07-24T11:01:54;97646.31;;;26.77;36.16
70589;BME280;58152;49.202;18.744;2022-07-24T12:43:17;97606.22;;;31.36;28.77
70589;BME280;58152;49.202;18.744;2022-07-24T14:12:23;97576.97;;;34.70;21.50
70589;BME280;58152;49.202;18.744;2022-07-24T14:19:16;97563.28;;;34.83;21.59
70589;BME280;58152;49.202;18.744;2022-07-24T14:42:08;97561.66;;;35.07;22.08
70589;BME280;58152;49.202;18.744;2022-07-24T14:44:34;97554.72;;;35.11;21.68
70589;BME280;58152;49.202;18.744;2022-07-24T14:47:00;97544.22;;;35.14;21.73
70589;BME280;58152;49.202;18.744;2022-07-24T14:49:34;97548.53;;;35.22;21.88
70589;BME280;58152;49.202;18.744;2022-07-24T14:52:00;97541.03;;;35.18;22.00
70589;BME280;58152;49.202;18.744;2022-07-24T14:54:26;97538.28;;;35.24;21.81
70589;BME280;58152;49.202;18.744;2022-07-24T14:56:51;97540.38;;;35.22;21.83
70589;BME280;58152;49.202;18.744;2022-07-24T14:59:17;97535.31;;;35.26;21.25
70589;BME280;58152;49.202;18.744;2022-07-24T15:01:42;97542.00;;;35.30;21.29
70589;BME280;58152;49.202;18.744;2022-07-24T15:04:08;97529.41;;;35.29;20.94
70589;BME280;58152;49.202;18.744;2022-07-24T15:06:34;97545.56;;;35.30;20.54
70589;BME280;58152;49.202;18.744;2022-07-24T15:09:03;97540.38;;;35.22;20.45
70589;BME280;58152;49.202;18.744;2022-07-24T15:11:29;97536.72;;;35.10;20.77
70589;BME280;58152;49.202;18.744;2022-07-24T15:13:54;97542.41;;;35.02;20.71
70589;BME280;58152;49.202;18.744;2022-07-24T15:16:20;97545.84;;;34.84;20.93
70589;BME280;58152;49.202;18.744;2022-07-24T15:18:48;97539.00;;;34.75;21.40
70589;BME280;58152;49.202;18.744;2022-07-24T15:21:14;97541.75;;;34.68;21.30
70589;BME280;58152;49.202;18.744;2022-07-24T15:23:39;97542.63;;;34.62;21.06
70589;BME280;58152;49.202;18.744;2022-07-24T15:26:08;97537.66;;;34.46;20.78
70589;BME280;58152;49.202;18.744;2022-07-24T15:49:52;97535.97;;;33.00;22.64
70589;BME280;58152;49.202;18.744;2022-07-24T16:09:36;97526.88;;;32.12;22.15
70589;BME280;58152;49.202;18.744;2022-07-24T16:12:11;97536.47;;;32.08;23.17
70589;BME280;58152;49.202;18.744;2022-07-24T16:14:45;97530.16;;;32.01;22.11
70589;BME280;58152;49.202;18.744;2022-07-24T16:17:11;97518.41;;;31.87;23.58
70589;BME280;58152;49.202;18.744;2022-07-24T16:19:40;97518.78;;;31.84;23.54
70589;BME280;58152;49.202;18.744;2022-07-24T16:25:03;97521.44;;;31.77;22.97
70589;BME280;58152;49.202;18.744;2022-07-24T16:27:31;97517.00;;;31.70;23.74
70589;BME280;58152;49.202;18.744;2022-07-24T16:47:07;97525.63;;;31.45;23.87
70589;BME280;58152;49.202;18.744;2022-07-24T16:49:39;97508.66;;;31.36;24.23
70589;BME280;58152;49.202;18.744;2022-07-24T16:52:20;97518.47;;;31.37;23.48
70589;BME280;58152;49.202;18.744;2022-07-24T16:55:07;97510.91;;;31.33;23.43
70589;BME280;58152;49.202;18.744;2022-07-24T17:28:41;97525.50;;;30.68;24.49
70589;BME280;58152;49.202;18.744;2022-07-24T17:31:07;97519.63;;;30.64;25.02
70589;BME280;58152;49.202;18.744;2022-07-24T17:37:17;97526.75;;;30.50;25.13
70589;BME280;58152;49.202;18.744;2022-07-24T18:09:57;97540.72;;;29.73;25.96
70589;BME280;58152;49.202;18.744;2022-07-24T18:30:20;97551.75;;;29.11;26.70
70589;BME280;58152;49.202;18.744;2022-07-24T18:48:01;97548.25;;;28.56;26.74
70589;BME280;58152;49.202;18.744;2022-07-24T18:50:52;97563.94;;;28.53;27.04
70589;BME280;58152;49.202;18.744;2022-07-24T19:00:36;97573.47;;;28.32;27.38
70589;BME280;58152;49.202;18.744;2022-07-24T19:03:22;97573.19;;;28.19;27.67
70589;BME280;58152;49.202;18.744;2022-07-24T19:06:32;97580.13;;;28.14;27.80
70589;BME280;58152;49.202;18.744;2022-07-24T19:16:25;97572.66;;;27.68;29.71
70589;BME280;58152;49.202;18.744;2022-07-24T19:19:17;97586.97;;;27.60;29.34
70589;BME280;58152;49.202;18.744;2022-07-24T19:21:42;97581.28;;;27.47;29.64
70589;BME280;58152;49.202;18.744;2022-07-24T19:24:07;97578.75;;;27.38;29.90
70589;BME280;58152;49.202;18.744;2022-07-24T19:26:33;97574.72;;;27.25;30.10
70589;BME280;58152;49.202;18.744;2022-07-24T20:00:51;97595.84;;;26.21;32.01
70589;BME280;58152;49.202;18.744;2022-07-24T20:07:08;97594.25;;;26.10;32.69
70589;BME280;58152;49.202;18.744;2022-07-24T20:13:00;97607.91;;;26.17;32.87
70589;BME280;58152;49.202;18.744;2022-07-24T20:15:46;97599.16;;;26.15;33.35
70589;BME280;58152;49.202;18.744;2022-07-24T20:18:17;97611.75;;;26.14;32.54
70589;BME280;58152;49.202;18.744;2022-07-24T20:20:48;97604.81;;;26.03;32.86
70589;BME280;58152;49.202;18.744;2022-07-24T20:37:21;97636.78;;;25.63;34.88
70589;BME280;58152;49.202;18.744;2022-07-24T20:40:38;97625.44;;;25.51;35.29
70589;BME280;58152;49.202;18.744;2022-07-24T20:57:41;97630.06;;;25.05;34.95
70589;BME280;58152;49.202;18.744;2022-07-24T21:00:09;97634.59;;;25.04;34.71
70589;BME280;58152;49.202;18.744;2022-07-24T21:02:38;97638.41;;;25.12;34.66
70589;BME280;58152;49.202;18.744;2022-07-24T21:25:04;97637.38;;;24.49;35.92
70589;BME280;58152;49.202;18.744;2022-07-24T21:27:31;97636.81;;;24.46;35.95
70589;BME280;58152;49.202;18.744;2022-07-24T21:40:37;97649.97;;;24.02;36.58
70589;BME280;58152;49.202;18.744;2022-07-24T22:05:21;97649.38;;;23.51;38.03
